Time;durP1;ratioP1;P1;durP2;ratioP2;P2;SDS_P1;SDS_P2;PMS_P1;PMS_P2;Temp;Humidity;BMP_temperature;BMP_pressure;BME280_temperature;BME280_humidity;BME280_pressure;Samples;Min_cycle;Max_cycle;Signal;HPM_P1;HPM_P2
2022/05/02 00:00:26;;;;;;;11.18;7.50;;;;;;;4.68;98.89;98666.34;5056575;28;20033;-71
2022/05/02 00:02:52;;;;;;;11.15;7.05;;;;;;;4.62;98.39;98655.88;5056122;28;20044;-71
2022/05/02 00:05:17;;;;;;;12.93;7.15;;;;;;;4.69;98.24;98657.66;5057243;28;20088;-71
2022/05/02 00:07:43;;;;;;;11.00;6.50;;;;;;;4.65;97.18;98655.91;5047148;28;20029;-71
2022/05/02 00:10:10;;;;;;;8.57;5.78;;;;;;;4.42;97.02;98643.63;5062106;28;20024;-71
2022/05/02 00:12:36;;;;;;;11.95;6.60;;;;;;;4.31;97.63;98639.25;5059294;28;20025;-71
2022/05/02 00:15:02;;;;;;;14.27;7.35;;;;;;;4.34;98.20;98645.31;5061430;28;20025;-71
2022/05/02 00:20:11;;;;;;;8.55;5.82;;;;;;;4.35;98.25;98636.66;5055741;28;20027;-71
2022/05/02 00:22:37;;;;;;;15.00;6.82;;;;;;;4.16;98.36;98634.81;5054566;28;20025;-71
2022/05/02 00:25:04;;;;;;;11.43;6.97;;;;;;;4.06;100.00;98635.63;5058985;28;20262;-71
2022/05/02 00:27:29;;;;;;;11.50;7.53;;;;;;;3.90;100.00;98631.16;5047102;28;20067;-71
2022/05/02 00:29:55;;;;;;;11.82;7.32;;;;;;;3.93;100.00;98625.97;5049145;28;20029;-71
2022/05/02 00:32:20;;;;;;;10.07;6.25;;;;;;;4.02;100.00;98623.44;5054045;28;20021;-71
2022/05/02 00:34:45;;;;;;;14.00;7.57;;;;;;;4.03;100.00;98627.78;5049338;28;20025;-71
2022/05/02 00:37:11;;;;;;;10.07;6.35;;;;;;;4.10;100.00;98619.16;5054027;28;20078;-71
2022/05/02 00:39:36;;;;;;;10.73;5.68;;;;;;;4.13;99.69;98616.56;5052843;28;20100;-71
2022/05/02 00:42:02;;;;;;;11.60;6.18;;;;;;;4.18;98.94;98621.81;5045283;28;20025;-71
2022/05/02 00:44:27;;;;;;;11.23;6.70;;;;;;;4.13;98.44;98618.28;5052156;28;20056;-71
2022/05/02 00:46:53;;;;;;;11.57;6.90;;;;;;;4.09;99.03;98617.38;5054743;28;20029;-71
2022/05/02 00:49:19;;;;;;;13.73;5.95;;;;;;;4.15;99.03;98611.38;5055276;28;20025;-71
2022/05/02 00:51:44;;;;;;;9.70;6.40;;;;;;;3.98;98.03;98619.06;5060467;28;20028;-71
2022/05/02 00:54:10;;;;;;;12.65;6.85;;;;;;;4.01;98.14;98607.78;5053717;28;20021;-71
2022/05/02 00:56:35;;;;;;;11.50;6.28;;;;;;;3.74;97.60;98608.47;5056330;28;20029;-71
2022/05/02 00:59:01;;;;;;;13.10;6.50;;;;;;;3.87;98.21;98615.53;5060538;28;20029;-71
2022/05/02 01:01:26;;;;;;;10.40;6.15;;;;;;;3.89;98.51;98618.16;5050835;28;20029;-71
2022/05/02 01:03:52;;;;;;;10.95;7.00;;;;;;;3.84;98.39;98610.31;5050817;28;20033;-71
2022/05/02 01:09:03;;;;;;;9.32;5.47;;;;;;;3.62;98.09;98608.41;5050441;28;20033;-71
2022/05/02 01:11:29;;;;;;;9.85;6.43;;;;;;;3.61;98.66;98606.66;5045878;28;20371;-71
2022/05/02 01:13:54;;;;;;;11.23;6.93;;;;;;;3.61;98.76;98606.66;5060568;28;20020;-71
2022/05/02 01:16:29;;;;;;;12.55;7.35;;;;;;;3.69;98.70;98615.41;5055215;28;20062;-71
2022/05/02 01:18:59;;;;;;;10.02;5.95;;;;;;;3.75;98.26;98607.63;5049650;28;20033;-71
2022/05/02 01:21:29;;;;;;;10.70;6.30;;;;;;;3.68;98.62;98607.59;5050722;28;20048;-71
2022/05/02 01:23:58;;;;;;;9.93;6.30;;;;;;;3.64;98.61;98603.22;5054713;28;20321;-71
2022/05/02 01:26:23;;;;;;;11.32;6.97;;;;;;;3.70;99.21;98601.53;5047356;28;20106;-71
2022/05/02 01:29:00;;;;;;;8.60;5.75;;;;;;;3.75;98.74;98605.03;5046897;28;20025;-71
2022/05/02 01:31:25;;;;;;;10.38;6.63;;;;;;;3.74;98.21;98605.03;5062333;28;20224;-71
2022/05/02 01:33:52;;;;;;;10.25;7.00;;;;;;;3.68;98.57;98603.25;5056101;28;20060;-71
2022/05/02 01:36:21;;;;;;;11.93;7.07;;;;;;;3.62;98.17;98603.22;5053981;28;20057;-71
2022/05/02 01:38:46;;;;;;;10.07;5.88;;;;;;;3.55;97.73;98596.19;5059891;28;20031;-71
2022/05/02 01:41:12;;;;;;;9.20;6.40;;;;;;;3.47;98.39;98597.00;5060144;28;20025;-71
2022/05/02 01:43:39;;;;;;;8.75;5.95;;;;;;;3.42;98.23;98596.97;5046873;28;20037;-71
2022/05/02 01:46:06;;;;;;;11.15;6.35;;;;;;;3.41;98.39;98597.84;5055025;28;20092;-71
2022/05/02 01:48:32;;;;;;;9.93;5.50;;;;;;;3.40;98.28;98601.31;5050633;28;20037;-71
2022/05/02 01:50:58;;;;;;;7.70;5.47;;;;;;;3.35;98.31;98596.94;5049977;28;20356;-71
2022/05/02 01:53:24;;;;;;;12.45;5.63;;;;;;;3.34;98.56;98598.66;5052817;28;20078;-71
2022/05/02 01:55:50;;;;;;;7.50;5.32;;;;;;;3.37;98.46;98596.06;5053427;28;20020;-71
2022/05/02 01:58:15;;;;;;;11.68;5.68;;;;;;;3.44;98.48;98608.25;5047368;28;20124;-71
2022/05/02 02:00:41;;;;;;;12.18;6.68;;;;;;;3.32;97.91;98596.91;5053854;28;20071;-71
2022/05/02 02:03:07;;;;;;;8.48;5.57;;;;;;;3.34;98.90;98598.66;5045691;28;20033;-71
2022/05/02 02:05:51;;;;;;;8.25;5.65;;;;;;;3.38;98.12;98602.13;5046546;28;20025;-71
2022/05/02 02:08:30;;;;;;;11.93;5.90;;;;;;;3.22;98.28;98601.13;5051729;28;20252;-71
2022/05/02 02:10:58;;;;;;;9.52;6.18;;;;;;;3.02;98.51;98597.50;5046140;28;20040;-71
2022/05/02 02:13:23;;;;;;;12.43;6.80;;;;;;;3.05;100.00;98599.25;5049837;28;20079;-71
2022/05/02 02:15:49;;;;;;;10.75;6.82;;;;;;;3.10;100.00;98601.03;5051879;28;20028;-71
2022/05/02 02:18:15;;;;;;;10.65;6.63;;;;;;;3.14;99.57;98596.72;5054777;28;20024;-71
2022/05/02 02:20:42;;;;;;;9.50;6.22;;;;;;;3.19;99.36;98595.03;5050999;28;20043;-71
2022/05/02 02:23:08;;;;;;;8.80;6.30;;;;;;;3.20;99.71;98602.84;5047809;28;20029;-71
2022/05/02 02:25:34;;;;;;;8.90;5.72;;;;;;;3.28;98.72;98596.00;5047846;28;20063;-71
2022/05/02 02:28:00;;;;;;;13.10;7.22;;;;;;;3.22;99.08;98601.13;5054381;28;20029;-71
2022/05/02 02:30:27;;;;;;;13.35;6.80;;;;;;;3.04;98.97;98595.75;5052414;28;20029;-71
2022/05/02 02:32:52;;;;;;;14.90;8.20;;;;;;;2.96;98.77;98592.22;5046712;28;20049;-71
2022/05/02 02:35:20;;;;;;;10.10;6.10;;;;;;;3.05;98.91;98596.63;5047056;28;20021;-71
2022/05/02 02:37:47;;;;;;;11.20;6.60;;;;;;;3.17;98.48;98595.03;5058443;28;20088;-70
2022/05/02 02:40:13;;;;;;;9.68;6.40;;;;;;;3.16;98.18;98584.63;5049578;28;20027;-70
2022/05/02 02:42:38;;;;;;;11.45;6.65;;;;;;;3.26;98.21;98582.09;5047722;28;20052;-70
2022/05/02 02:45:04;;;;;;;8.40;5.95;;;;;;;3.22;97.35;98575.13;5057127;28;20031;-70
2022/05/02 02:47:29;;;;;;;8.40;5.82;;;;;;;3.04;97.85;98576.72;5050697;28;20190;-70
2022/05/02 02:49:55;;;;;;;16.25;5.50;;;;;;;3.01;97.55;98580.13;5054043;28;20036;-70
2022/05/02 02:52:20;;;;;;;7.47;5.25;;;;;;;2.67;98.35;98572.00;5056224;28;20020;-70
2022/05/02 02:54:46;;;;;;;10.93;5.80;;;;;;;2.75;99.59;98571.22;5052619;28;20036;-70
2022/05/02 02:57:11;;;;;;;9.32;6.32;;;;;;;2.84;99.88;98571.31;5050013;28;20021;-70
2022/05/02 02:59:36;;;;;;;10.43;5.15;;;;;;;2.87;99.73;98566.16;5052992;28;20033;-70
2022/05/02 03:02:02;;;;;;;9.40;6.13;;;;;;;2.94;98.88;98560.13;5056967;28;20025;-70
2022/05/02 03:07:12;;;;;;;9.20;6.18;;;;;;;2.86;98.71;98561.81;5063870;28;20088;-70
2022/05/02 03:09:38;;;;;;;9.90;6.05;;;;;;;2.86;98.65;98564.41;5059201;28;20021;-70
2022/05/02 03:12:04;;;;;;;10.52;5.32;;;;;;;2.93;98.63;98561.00;5057761;28;20024;-70
2022/05/02 03:14:29;;;;;;;14.60;6.85;;;;;;;2.85;98.69;98556.59;5051235;28;20347;-70
2022/05/02 03:16:55;;;;;;;9.77;6.10;;;;;;;2.64;98.62;98551.19;5056321;28;20021;-70
2022/05/02 03:19:20;;;;;;;16.23;7.10;;;;;;;2.76;99.27;98559.97;5060590;28;20025;-71
2022/05/02 03:21:46;;;;;;;12.35;7.25;;;;;;;2.68;98.54;98558.13;5063496;28;20024;-71
2022/05/02 03:24:11;;;;;;;9.70;5.97;;;;;;;2.65;99.88;98548.59;5054087;28;20340;-71
2022/05/02 03:26:36;;;;;;;7.30;4.72;;;;;;;2.70;99.24;98552.13;5054707;28;20030;-71
2022/05/02 03:29:02;;;;;;;11.02;6.45;;;;;;;2.65;98.91;98551.19;5047366;28;20040;-71
2022/05/02 03:31:28;;;;;;;12.55;7.18;;;;;;;2.62;98.86;98551.16;5055568;28;20127;-71
2022/05/02 03:33:54;;;;;;;8.07;4.57;;;;;;;2.66;98.73;98554.69;5056566;28;20320;-71
2022/05/02 03:36:19;;;;;;;14.23;5.63;;;;;;;2.62;98.40;98553.75;5058930;28;20033;-71
2022/05/02 03:38:44;;;;;;;16.58;5.18;;;;;;;2.61;98.43;98557.22;5056727;28;20029;-71
2022/05/02 03:41:10;;;;;;;10.93;5.82;;;;;;;2.66;98.61;98544.28;5056414;28;20021;-71
2022/05/02 03:43:36;;;;;;;9.85;6.25;;;;;;;2.69;98.51;98552.97;5048416;28;20026;-71
2022/05/02 03:46:02;;;;;;;11.20;5.88;;;;;;;2.74;98.28;98548.69;5055674;28;20021;-71
2022/05/02 03:48:27;;;;;;;12.50;5.85;;;;;;;2.66;98.58;98545.13;5055333;28;20024;-71
2022/05/02 03:50:53;;;;;;;9.45;5.47;;;;;;;2.59;98.21;98547.69;5054956;28;20096;-70
2022/05/02 03:53:19;;;;;;;10.73;6.10;;;;;;;2.66;98.12;98550.31;5051663;28;20025;-70
2022/05/02 03:55:45;;;;;;;11.70;7.10;;;;;;;2.66;98.42;98550.31;5049006;28;20382;-70
2022/05/02 03:58:11;;;;;;;15.77;6.50;;;;;;;2.69;98.63;98550.34;5047143;28;20035;-70
2022/05/02 04:00:37;;;;;;;10.70;6.80;;;;;;;2.66;98.34;98550.31;5056079;28;20028;-70
2022/05/02 04:03:02;;;;;;;10.80;6.40;;;;;;;2.54;98.06;98545.03;5055244;28;20029;-70
2022/05/02 04:05:28;;;;;;;15.43;7.15;;;;;;;2.52;98.88;98551.03;5059623;28;20036;-70
2022/05/02 04:07:53;;;;;;;14.18;6.32;;;;;;;2.55;99.83;98546.75;5052095;28;20025;-70
2022/05/02 04:10:19;;;;;;;11.38;6.22;;;;;;;2.32;99.64;98548.25;5057127;28;20313;-70
2022/05/02 04:12:45;;;;;;;15.75;8.45;;;;;;;2.40;100.00;98549.19;5047824;28;20237;-70
2022/05/02 04:15:11;;;;;;;15.25;7.80;;;;;;;2.44;100.00;98547.50;5057318;28;20218;-70
2022/05/02 04:17:37;;;;;;;13.35;8.50;;;;;;;2.48;100.00;98552.75;5061375;28;20377;-70
2022/05/02 04:20:04;;;;;;;18.50;9.25;;;;;;;2.53;100.00;98545.88;5052439;28;20229;-70
2022/05/02 04:22:29;;;;;;;16.00;8.95;;;;;;;2.56;100.00;98547.66;5045806;28;20063;-70
2022/05/02 04:24:54;;;;;;;19.15;8.65;;;;;;;2.60;100.00;98539.91;5051240;28;20096;-70
2022/05/02 04:27:20;;;;;;;12.35;7.88;;;;;;;2.68;100.00;98543.44;5056376;28;20216;-70
2022/05/02 04:29:45;;;;;;;12.60;6.78;;;;;;;2.77;100.00;98538.31;5052226;28;20036;-70
2022/05/02 04:32:11;;;;;;;12.93;7.63;;;;;;;2.78;100.00;98545.25;5053382;28;20266;-70
2022/05/02 04:34:36;;;;;;;15.65;8.57;;;;;;;2.83;99.39;98559.19;5056908;28;20085;-70
2022/05/02 04:37:02;;;;;;;16.20;8.80;;;;;;;2.92;98.84;98540.19;5052770;28;20037;-70
2022/05/02 04:39:27;;;;;;;13.52;6.63;;;;;;;2.85;97.75;98547.06;5053857;28;20044;-70
2022/05/02 04:41:53;;;;;;;12.68;7.22;;;;;;;2.90;97.81;98550.59;5055117;28;20021;-70
2022/05/02 04:44:18;;;;;;;15.02;8.23;;;;;;;2.90;96.85;98553.19;5053782;28;20028;-70
2022/05/02 04:46:44;;;;;;;11.18;6.43;;;;;;;2.94;97.26;98560.13;5047357;28;20029;-70
2022/05/02 04:49:09;;;;;;;15.05;7.60;;;;;;;3.04;96.97;98553.31;5054928;28;20032;-70
2022/05/02 04:51:35;;;;;;;12.02;7.50;;;;;;;2.96;96.95;98555.84;5056969;28;20047;-70
2022/05/02 04:54:00;;;;;;;13.27;7.28;;;;;;;2.97;97.34;98557.56;5046071;28;20049;-70
2022/05/02 04:56:25;;;;;;;12.02;7.32;;;;;;;3.19;96.86;98548.22;5055723;28;20048;-70
2022/05/02 04:58:51;;;;;;;11.40;6.47;;;;;;;3.25;95.41;98554.34;5063762;28;20397;-70
2022/05/02 05:01:16;;;;;;;12.90;7.05;;;;;;;3.25;96.21;98554.34;5062291;28;20037;-70
2022/05/02 05:03:42;;;;;;;11.10;6.25;;;;;;;3.35;96.21;98561.38;5062723;28;20063;-70
2022/05/02 05:06:07;;;;;;;10.98;6.63;;;;;;;3.49;96.10;98558.88;5046637;28;20063;-70
2022/05/02 05:08:33;;;;;;;11.60;6.97;;;;;;;3.69;96.50;98563.34;5054556;28;20028;-70
2022/05/02 05:11:13;;;;;;;10.27;6.43;;;;;;;4.26;94.80;98568.88;5051676;28;20241;-70
2022/05/02 05:16:20;;;;;;;16.15;6.13;;;;;;;4.82;92.28;98560.34;5051698;28;20021;-70
2022/05/02 05:17:04;;;;;;;12.32;6.35;;;;;;;5.49;89.89;98567.34;5054563;28;20359;-70
2022/05/02 05:19:37;;;;;;;12.02;6.80;;;;;;;6.01;88.20;98575.16;5062476;28;20036;-70
2022/05/02 05:22:18;;;;;;;15.18;7.32;;;;;;;6.45;86.62;98572.38;5053718;28;20040;-70
2022/05/02 05:24:46;;;;;;;10.93;6.25;;;;;;;6.84;84.94;98566.97;5056335;28;20091;-70
2022/05/02 05:27:46;;;;;;;10.15;6.32;;;;;;;7.24;82.57;98563.19;5053144;28;20202;-70
2022/05/02 05:30:12;;;;;;;12.77;7.35;;;;;;;7.27;82.45;98552.72;5053369;28;20025;-70
2022/05/02 05:32:51;;;;;;;9.07;5.88;;;;;;;7.82;80.61;98553.97;5048361;28;20235;-70
2022/05/02 05:35:31;;;;;;;9.90;6.82;;;;;;;7.93;78.71;98552.13;5051152;28;20207;-70
2022/05/02 05:38:09;;;;;;;9.50;6.65;;;;;;;8.41;77.58;98556.84;5056844;28;20024;-70
2022/05/02 05:40:42;;;;;;;9.48;6.05;;;;;;;8.66;77.27;98560.91;5052989;28;20029;-70
2022/05/02 05:43:22;;;;;;;;;;;;;;;8.61;77.38;98554.81;5050595;28;20217;-70
2022/05/02 05:46:25;;;;;;;13.82;6.13;;;;;;;8.55;78.00;98554.91;5048190;28;19935;-70
2022/05/02 05:48:56;;;;;;;10.20;6.60;;;;;;;8.62;78.12;98553.97;5053877;28;20329;-70
2022/05/02 05:51:27;;;;;;;9.20;5.72;;;;;;;8.89;78.38;98555.31;5061928;28;20021;-70
2022/05/02 05:54:21;;;;;;;11.27;6.80;;;;;;;9.30;78.19;98555.59;5060319;28;20047;-70
2022/05/02 05:57:08;;;;;;;8.65;5.88;;;;;;;9.88;76.72;98566.88;5059564;28;20041;-71
2022/05/02 06:00:04;;;;;;;11.60;6.50;;;;;;;10.53;74.31;98570.91;5044359;28;20056;-71
2022/05/02 06:02:49;;;;;;;8.65;5.93;;;;;;;11.07;74.34;98561.84;5060582;28;20283;-71
2022/05/02 06:05:16;;;;;;;12.50;6.22;;;;;;;11.48;71.90;98561.75;5053715;28;20044;-71
2022/05/02 06:07:43;;;;;;;9.75;6.43;;;;;;;11.94;70.61;98561.50;5052543;28;20037;-71
2022/05/02 06:10:09;;;;;;;7.55;5.25;;;;;;;11.94;69.45;98557.09;5062750;28;20027;-71
2022/05/02 06:12:36;;;;;;;8.63;5.97;;;;;;;12.15;69.36;98561.81;5050534;28;20259;-71
2022/05/02 06:20:39;;;;;;;10.13;6.90;;;;;;;11.58;71.71;98557.97;5048126;28;20059;-71
2022/05/02 06:23:09;;;;;;;9.80;6.55;;;;;;;11.51;71.54;98561.69;5044757;28;20394;-71
2022/05/02 06:25:37;;;;;;;9.63;6.57;;;;;;;11.37;73.18;98558.53;5047692;28;20347;-71
2022/05/02 06:28:04;;;;;;;14.07;7.35;;;;;;;11.42;74.30;98558.41;5052981;28;20094;-71
2022/05/02 06:30:30;;;;;;;10.23;7.47;;;;;;;11.86;73.77;98558.19;5044602;28;20321;-71
2022/05/02 06:33:00;;;;;;;11.57;7.30;;;;;;;12.23;73.40;98567.75;5060816;28;20024;-71
2022/05/02 06:35:31;;;;;;;11.55;7.25;;;;;;;12.78;71.69;98560.00;5054714;28;20029;-71
2022/05/02 06:38:17;;;;;;;12.68;7.10;;;;;;;13.08;71.47;98563.56;5054105;28;20438;-71
2022/05/02 06:41:07;;;;;;;10.77;7.00;;;;;;;13.32;71.49;98567.22;5045820;28;20032;-71
2022/05/02 06:43:45;;;;;;;11.60;7.43;;;;;;;13.37;71.44;98568.78;5054815;28;20025;-71
2022/05/02 06:46:37;;;;;;;12.18;8.20;;;;;;;13.14;71.69;98562.50;5059709;28;20399;-71
2022/05/02 06:49:07;;;;;;;12.33;8.20;;;;;;;13.04;72.15;98568.03;5057606;28;20071;-71
2022/05/02 06:51:37;;;;;;;14.07;8.93;;;;;;;12.63;73.95;98560.44;5063558;28;20246;-71
2022/05/02 06:54:24;;;;;;;12.23;8.75;;;;;;;12.89;74.33;98563.22;5061541;28;20268;-71
2022/05/02 06:57:23;;;;;;;15.25;8.73;;;;;;;12.72;73.77;98564.63;5069089;28;20024;-71
2022/05/02 07:00:10;;;;;;;14.85;9.38;;;;;;;13.29;74.78;98567.31;5083556;28;20038;-71
2022/05/02 07:03:03;;;;;;;15.48;8.70;;;;;;;13.85;74.26;98568.97;5049795;28;20045;-71
2022/05/02 07:05:45;;;;;;;11.90;8.18;;;;;;;14.39;71.96;98577.69;5049671;28;20053;-71
2022/05/02 07:08:18;;;;;;;11.82;8.30;;;;;;;14.80;70.91;98574.44;5056939;28;20043;-71
2022/05/02 07:10:44;;;;;;;14.32;9.60;;;;;;;14.10;71.05;98570.75;5055820;28;20087;-71
2022/05/02 07:13:45;;;;;;;16.05;10.02;;;;;;;14.65;73.64;98575.00;5065469;28;20327;-71
2022/05/02 07:16:23;;;;;;;15.85;9.73;;;;;;;15.02;71.32;98575.34;5045017;28;20021;-71
2022/05/02 07:18:57;;;;;;;17.63;9.73;;;;;;;15.79;69.37;98577.63;5047384;28;20315;-71
2022/05/02 07:21:29;;;;;;;16.17;10.02;;;;;;;15.58;67.65;98576.69;5050481;28;20083;-71
2022/05/02 07:24:09;;;;;;;16.87;10.67;;;;;;;16.38;67.86;98581.25;5057768;28;20100;-71
2022/05/02 07:26:37;;;;;;;18.80;10.20;;;;;;;16.56;69.00;98584.03;5052905;28;20024;-71
2022/05/02 07:29:05;;;;;;;13.18;9.00;;;;;;;17.31;65.87;98581.47;5046859;28;20221;-71
2022/05/02 07:31:32;;;;;;;14.23;9.65;;;;;;;17.40;66.06;98581.06;5046761;28;20228;-71
2022/05/02 07:33:58;;;;;;;14.27;9.25;;;;;;;18.12;63.69;98593.47;5083660;28;20079;-71
2022/05/02 07:36:25;;;;;;;15.15;9.43;;;;;;;18.66;62.58;98590.66;5086724;28;20126;-71
2022/05/02 07:38:54;;;;;;;17.65;9.18;;;;;;;18.90;59.94;98589.38;5077952;28;20244;-71
2022/05/02 07:41:25;;;;;;;13.70;9.38;;;;;;;18.16;61.07;98584.38;5046681;28;20356;-71
2022/05/02 07:44:04;;;;;;;14.40;9.55;;;;;;;18.92;60.05;98577.69;5055934;28;20024;-71
2022/05/02 07:46:36;;;;;;;12.73;8.43;;;;;;;19.62;59.42;98581.84;5058738;28;20236;-71
2022/05/02 07:49:03;;;;;;;13.40;9.30;;;;;;;19.97;57.80;98586.94;5052871;28;20025;-71
2022/05/02 07:51:29;;;;;;;15.02;9.50;;;;;;;20.57;56.55;98580.66;5066452;28;20029;-71
2022/05/02 07:53:58;;;;;;;14.45;8.85;;;;;;;20.21;58.65;98574.81;5054765;28;20017;-71
2022/05/02 07:56:26;;;;;;;16.13;9.48;;;;;;;20.53;57.21;98579.13;5053808;28;20040;-71
2022/05/02 07:58:53;;;;;;;12.90;8.73;;;;;;;21.14;56.21;98579.78;5066225;28;20021;-71
2022/05/02 08:01:23;;;;;;;12.68;8.50;;;;;;;21.51;55.57;98582.81;5064023;28;20316;-71
2022/05/02 08:03:50;;;;;;;12.75;9.35;;;;;;;21.44;56.40;98570.75;5045944;28;20037;-71
2022/05/02 08:06:27;;;;;;;13.55;8.27;;;;;;;22.01;54.34;98583.09;5046260;28;20026;-71
2022/05/02 08:09:11;;;;;;;11.63;8.05;;;;;;;21.98;53.77;98573.44;5046109;28;20032;-71
2022/05/02 08:11:55;;;;;;;12.40;8.20;;;;;;;21.83;52.87;98573.59;5046892;28;20025;-71
2022/05/02 08:14:30;;;;;;;13.10;8.15;;;;;;;22.08;53.98;98568.34;5053391;28;20029;-71
2022/05/02 08:17:07;;;;;;;10.75;7.57;;;;;;;22.19;50.63;98561.31;5054284;28;20020;-71
2022/05/02 08:19:55;;;;;;;15.32;8.35;;;;;;;21.72;52.72;98562.66;5046470;28;20056;-71
2022/05/02 08:28:36;;;;;;;10.05;7.50;;;;;;;23.09;51.61;98556.78;5065112;28;20035;-71
2022/05/02 08:31:12;;;;;;;12.60;7.85;;;;;;;23.02;49.56;98555.50;5067908;28;20069;-71
2022/05/02 08:33:43;;;;;;;11.07;7.95;;;;;;;23.50;47.92;98560.09;5054728;28;20061;-71
2022/05/02 08:36:20;;;;;;;11.50;7.32;;;;;;;23.46;47.39;98553.22;5053271;28;20316;-71
2022/05/02 08:38:55;;;;;;;11.43;7.13;;;;;;;23.41;47.25;98559.91;5054373;28;20375;-71
2022/05/02 08:41:43;;;;;;;12.63;6.50;;;;;;;23.41;48.36;98549.16;5048553;28;20025;-71
2022/05/02 08:44:11;;;;;;;12.18;7.32;;;;;;;23.31;47.33;98557.00;5056748;28;20232;-71
2022/05/02 08:46:51;;;;;;;11.73;7.43;;;;;;;23.56;48.47;98548.91;5050697;28;20051;-71
2022/05/02 08:49:56;;;;;;;10.95;6.70;;;;;;;23.57;46.67;98545.25;5058592;28;20031;-71
2022/05/02 08:52:36;;;;;;;8.70;6.45;;;;;;;23.93;47.12;98552.44;5048130;28;20041;-71
2022/05/02 08:55:39;;;;;;;11.10;6.43;;;;;;;24.01;48.14;98542.00;5046447;28;20052;-71
2022/05/02 08:58:29;;;;;;;10.45;6.82;;;;;;;24.03;43.67;98538.22;5045285;28;20033;-71
2022/05/02 09:01:03;;;;;;;12.30;7.63;;;;;;;22.78;44.33;98531.25;5045075;28;20048;-71
2022/05/02 09:03:47;;;;;;;12.25;6.60;;;;;;;23.19;44.69;98539.06;5060807;28;20047;-71
2022/05/02 09:06:18;;;;;;;9.40;6.25;;;;;;;23.06;45.54;98543.59;5055466;28;20032;-71
2022/05/02 09:09:05;;;;;;;9.98;7.10;;;;;;;23.53;44.53;98541.06;5061150;28;20312;-71
2022/05/02 09:11:53;;;;;;;11.38;6.32;;;;;;;24.14;44.32;98538.25;5048215;28;20091;-71
2022/05/02 09:14:36;;;;;;;9.10;6.10;;;;;;;24.08;43.09;98538.72;5060344;28;20084;-71
2022/05/02 09:17:39;;;;;;;7.85;5.82;;;;;;;24.05;41.48;98530.91;5057691;28;20021;-71
2022/05/02 09:20:34;;;;;;;10.23;5.72;;;;;;;24.03;43.48;98537.34;5052914;28;20064;-71
2022/05/02 09:23:23;;;;;;;7.45;5.22;;;;;;;23.96;42.37;98533.41;5065768;28;20051;-71
2022/05/02 09:26:17;;;;;;;8.43;6.05;;;;;;;23.94;43.04;98522.78;5053044;28;20021;-71
2022/05/02 09:29:04;;;;;;;8.52;5.38;;;;;;;24.75;41.16;98527.25;5053511;28;20075;-71
2022/05/02 09:31:44;;;;;;;8.07;5.22;;;;;;;24.74;41.22;98530.91;5064029;28;20100;-71
2022/05/02 09:34:47;;;;;;;11.90;5.30;;;;;;;24.45;39.79;98524.19;5060741;28;20347;-71
2022/05/02 09:37:22;;;;;;;15.68;6.25;;;;;;;24.95;40.75;98517.59;5051773;28;20032;-72
2022/05/02 09:39:57;;;;;;;9.18;6.43;;;;;;;25.10;43.52;98517.25;5053493;28;20236;-71
2022/05/02 09:42:32;;;;;;;10.80;6.90;;;;;;;25.18;44.32;98514.78;5052211;28;20096;-71
2022/05/02 09:51:21;;;;;;;9.40;6.00;;;;;;;25.12;41.93;98504.50;5060433;28;20039;-71
2022/05/02 09:54:06;;;;;;;10.43;6.40;;;;;;;23.87;43.32;98488.38;5051171;28;20025;-71
2022/05/02 09:56:45;;;;;;;9.75;6.15;;;;;;;22.85;45.55;98486.06;5058892;28;20025;-71
2022/05/02 09:59:19;;;;;;;9.85;5.90;;;;;;;21.93;48.36;98483.59;5046143;28;20075;-71
2022/05/02 10:02:01;;;;;;;9.52;6.22;;;;;;;21.90;48.22;98483.78;5048289;28;20100;-71
2022/05/02 10:04:40;;;;;;;10.85;6.22;;;;;;;22.32;46.41;98480.88;5059821;28;20057;-71
2022/05/02 10:07:09;;;;;;;11.80;6.03;;;;;;;21.59;50.27;98474.22;5062478;28;20044;-71
2022/05/02 10:09:56;;;;;;;9.52;5.82;;;;;;;21.05;51.13;98473.31;5051970;28;20025;-71
2022/05/02 10:12:27;;;;;;;10.23;5.97;;;;;;;21.91;48.81;98470.28;5057890;28;20016;-71
2022/05/02 10:15:30;;;;;;;7.97;5.53;;;;;;;22.73;48.26;98476.19;5049936;28;20321;-71
2022/05/02 10:17:58;;;;;;;8.20;5.35;;;;;;;23.63;46.75;98479.47;5052308;28;20029;-71
2022/05/02 10:20:29;;;;;;;9.50;5.22;;;;;;;22.14;48.00;98479.44;5043959;28;20029;-71
2022/05/02 10:23:02;;;;;;;12.77;5.70;;;;;;;21.80;47.57;98477.34;5053505;28;20339;-71
2022/05/02 10:25:53;;;;;;;7.25;5.43;;;;;;;21.16;48.84;98476.16;5050681;28;20032;-71
2022/05/02 10:28:37;;;;;;;7.35;5.05;;;;;;;20.70;51.44;98468.44;5048219;28;20020;-71
2022/05/02 10:31:26;;;;;;;8.93;5.18;;;;;;;20.19;51.28;98459.13;5054065;28;20092;-70
2022/05/02 10:33:53;;;;;;;8.10;5.38;;;;;;;20.13;52.22;98464.88;5049583;28;20375;-70
2022/05/02 10:36:22;;;;;;;7.32;5.57;;;;;;;19.97;50.61;98464.03;5046185;28;20093;-70
2022/05/02 10:39:01;;;;;;;9.07;5.72;;;;;;;20.11;52.26;98461.38;5043659;28;20025;-70
2022/05/02 10:41:30;;;;;;;8.85;5.30;;;;;;;20.07;52.88;98459.84;5050540;28;20376;-70
2022/05/02 10:44:04;;;;;;;10.07;5.80;;;;;;;20.19;52.19;98452.94;5054596;28;20040;-70
2022/05/02 10:46:31;;;;;;;7.93;5.55;;;;;;;20.21;52.00;98446.53;5049584;28;20041;-70
2022/05/02 10:49:16;;;;;;;8.52;5.00;;;;;;;20.55;51.53;98451.53;5058858;28;20035;-70
2022/05/02 10:51:55;;;;;;;8.50;5.20;;;;;;;20.26;51.13;98443.59;5058405;28;20056;-70
2022/05/02 10:54:41;;;;;;;8.70;5.90;;;;;;;20.38;51.90;98442.84;5069153;28;20028;-70
2022/05/02 10:57:34;;;;;;;9.27;5.13;;;;;;;20.25;52.17;98445.38;5066280;28;20032;-70
2022/05/02 11:00:06;;;;;;;10.95;4.95;;;;;;;20.19;53.73;98436.91;5050644;28;20029;-70
2022/05/02 11:02:57;;;;;;;7.22;4.63;;;;;;;20.35;52.37;98443.88;5051789;28;20037;-70
2022/05/02 11:05:34;;;;;;;8.57;5.97;;;;;;;20.26;50.14;98432.88;5050994;28;20055;-70
2022/05/02 11:08:05;;;;;;;9.25;5.45;;;;;;;20.00;51.12;98426.41;5048103;28;20028;-70
2022/05/02 11:10:39;;;;;;;11.13;6.07;;;;;;;19.95;52.98;98433.00;5060661;28;20051;-70
2022/05/02 11:13:18;;;;;;;9.27;4.72;;;;;;;19.83;54.12;98429.25;5049035;28;20022;-70
2022/05/02 11:16:08;;;;;;;7.25;4.72;;;;;;;19.98;52.19;98427.47;5050542;28;20033;-70
2022/05/02 11:21:55;;;;;;;8.35;5.38;;;;;;;19.92;50.90;98417.13;5065071;28;20036;-70
2022/05/02 11:24:44;;;;;;;7.95;5.15;;;;;;;19.99;50.09;98429.19;5064579;28;20052;-70
2022/05/02 11:27:30;;;;;;;8.00;4.90;;;;;;;19.58;52.92;98425.47;5060205;28;20052;-70
2022/05/02 11:30:02;;;;;;;9.80;5.45;;;;;;;19.03;53.07;98427.72;5055330;28;20055;-70
2022/05/02 11:32:36;;;;;;;;;;;;;;;19.11;53.83;98420.16;5065974;28;20336;-70
2022/05/02 11:35:13;;;;;;;7.13;5.15;;;;;;;19.52;52.37;98418.63;5056008;28;19978;-70
2022/05/02 11:38:10;;;;;;;11.20;5.53;;;;;;;20.08;51.10;98423.28;5047344;28;20029;-70
2022/05/02 11:41:05;;;;;;;8.07;5.30;;;;;;;20.38;50.42;98430.31;5055987;28;20039;-70
2022/05/02 11:43:36;;;;;;;8.30;5.20;;;;;;;20.31;49.07;98428.97;5054831;28;20336;-70
2022/05/02 11:46:24;;;;;;;7.15;5.00;;;;;;;20.21;49.79;98425.16;5058806;28;20025;-70
2022/05/02 11:49:17;;;;;;;8.95;5.03;;;;;;;19.64;50.61;98409.91;5047340;28;20055;-70
2022/05/02 11:51:50;;;;;;;8.93;5.15;;;;;;;19.38;51.51;98415.06;5053279;28;20306;-70
2022/05/02 11:54:34;;;;;;;7.63;5.22;;;;;;;19.15;51.06;98413.69;5049997;28;20075;-70
2022/05/02 11:57:10;;;;;;;8.05;4.97;;;;;;;19.08;52.07;98407.00;5051089;28;20025;-70
2022/05/02 11:59:51;;;;;;;8.73;5.03;;;;;;;18.65;53.35;98405.00;5053719;28;20331;-70
2022/05/02 12:02:46;;;;;;;9.07;4.97;;;;;;;18.84;53.04;98413.69;5054852;28;20055;-70
2022/05/02 12:05:17;;;;;;;8.38;4.88;;;;;;;18.94;53.78;98409.56;5060664;28;20638;-70
2022/05/02 12:07:50;;;;;;;22.73;6.40;;;;;;;18.86;54.30;98411.81;5046425;28;20059;-70
2022/05/02 12:10:17;;;;;;;13.38;5.32;;;;;;;18.90;54.39;98413.34;5045565;28;20025;-70
2022/05/02 12:12:50;;;;;;;7.10;5.18;;;;;;;18.94;54.55;98417.56;5059409;28;20021;-70
2022/05/02 12:15:16;;;;;;;8.48;4.25;;;;;;;18.99;54.38;98416.34;5051896;28;20088;-70
2022/05/02 12:17:52;;;;;;;8.20;5.07;;;;;;;18.86;55.12;98409.16;5050289;28;20056;-70
2022/05/02 12:20:38;;;;;;;7.90;5.43;;;;;;;18.98;53.44;98403.97;5048341;28;20321;-70
2022/05/02 12:23:10;;;;;;;12.90;5.22;;;;;;;19.14;54.91;98412.81;5047938;28;20028;-70
2022/05/02 12:25:46;;;;;;;7.28;4.70;;;;;;;19.05;53.45;98412.50;5048389;28;20025;-70
2022/05/02 12:28:12;;;;;;;9.25;4.72;;;;;;;19.02;53.63;98402.00;5054564;28;20028;-70